createdAt,value
2019-06-08T00:01:22.905Z,15.10
2019-06-08T00:03:52.706Z,15.10
2019-06-08T00:06:23.013Z,15.10
2019-06-08T00:08:52.945Z,15.10
2019-06-08T00:11:23.426Z,15.10
2019-06-08T00:13:53.371Z,15.10
2019-06-08T00:16:23.812Z,15.10
2019-06-08T00:18:53.733Z,15.10
2019-06-08T00:21:24.131Z,15.10
2019-06-08T00:23:57.849Z,15.10
2019-06-08T00:26:27.526Z,15.00
2019-06-08T00:28:57.844Z,15.00
2019-06-08T00:31:27.588Z,15.00
2019-06-08T00:33:57.273Z,15.00
2019-06-08T00:36:26.956Z,15.10
2019-06-08T00:38:56.738Z,15.10
2019-06-08T00:41:26.709Z,15.10
2019-06-08T00:43:56.794Z,15.10
2019-06-08T00:46:26.495Z,15.10
2019-06-08T00:48:56.303Z,15.10
2019-06-08T00:51:26.080Z,15.10
2019-06-08T00:53:55.727Z,15.10
2019-06-08T00:56:26.638Z,15.10
2019-06-08T00:58:56.343Z,15.20
2019-06-08T01:01:28.255Z,15.20
2019-06-08T01:03:58.067Z,15.20
2019-06-08T01:06:29.942Z,15.20
2019-06-08T01:08:59.599Z,15.20
2019-06-08T01:11:29.539Z,15.20
2019-06-08T01:14:00.707Z,15.30
2019-06-08T01:16:30.526Z,15.30
2019-06-08T01:19:00.215Z,15.30
2019-06-08T01:21:30.244Z,15.30
2019-06-08T01:23:59.945Z,15.30
2019-06-08T01:26:30.145Z,15.30
2019-06-08T01:29:01.712Z,15.30
2019-06-08T01:31:34.314Z,15.40
2019-06-08T01:34:04.887Z,15.40
2019-06-08T01:36:34.606Z,15.40
2019-06-08T01:39:07.725Z,15.40
2019-06-08T01:41:37.440Z,15.40
2019-06-08T01:44:07.108Z,15.40
2019-06-08T01:46:36.809Z,15.40
2019-06-08T01:49:07.268Z,15.40
2019-06-08T01:51:38.398Z,15.40
2019-06-08T01:54:08.243Z,15.40
2019-06-08T01:56:38.418Z,15.40
2019-06-08T01:59:08.154Z,15.40
2019-06-08T02:01:37.912Z,15.40
2019-06-08T02:04:07.574Z,15.40
2019-06-08T02:06:37.262Z,15.40
2019-06-08T02:09:09.880Z,15.30
2019-06-08T02:11:40.031Z,15.30
2019-06-08T02:14:09.702Z,15.30
2019-06-08T02:16:39.387Z,15.40
2019-06-08T02:19:09.058Z,15.40
2019-06-08T02:21:39.110Z,15.40
2019-06-08T02:24:09.121Z,15.40
2019-06-08T02:26:39.708Z,15.40
2019-06-08T02:29:09.662Z,15.40
2019-06-08T02:31:42.100Z,15.40
2019-06-08T02:34:11.888Z,15.40
2019-06-08T02:36:41.564Z,15.40
2019-06-08T02:39:11.276Z,15.30
2019-06-08T02:41:41.327Z,15.30
2019-06-08T02:44:10.981Z,15.30
2019-06-08T02:46:40.792Z,15.20
2019-06-08T02:49:10.442Z,15.20
2019-06-08T02:51:41.149Z,15.20
2019-06-08T02:54:13.490Z,15.20
2019-06-08T02:56:44.590Z,15.20
2019-06-08T02:59:18.679Z,15.20
2019-06-08T03:01:51.111Z,15.20
2019-06-08T03:04:22.433Z,15.20
2019-06-08T03:06:53.791Z,15.20
2019-06-08T03:09:27.545Z,15.20
2019-06-08T03:11:57.230Z,15.20
2019-06-08T03:14:28.926Z,15.20
2019-06-08T03:17:00.323Z,15.20
2019-06-08T03:19:31.272Z,15.20
2019-06-08T03:22:01.564Z,15.20
2019-06-08T03:24:32.483Z,15.20
2019-06-08T03:27:04.166Z,15.20
2019-06-08T03:29:34.963Z,15.20
2019-06-08T03:32:05.520Z,15.20
2019-06-08T03:34:39.777Z,15.20
2019-06-08T03:37:06.707Z,15.20
2019-06-08T03:39:37.003Z,15.20
2019-06-08T03:42:07.244Z,15.20
2019-06-08T03:44:38.434Z,15.20
2019-06-08T03:47:08.458Z,15.20
2019-06-08T03:49:48.774Z,15.20
2019-06-08T03:52:12.430Z,15.10
2019-06-08T03:54:43.055Z,15.10
2019-06-08T03:57:13.787Z,15.00
2019-06-08T03:59:45.608Z,15.00
2019-06-08T04:02:14.857Z,14.90
2019-06-08T04:04:46.274Z,14.80
2019-06-08T04:07:16.006Z,14.80
2019-06-08T04:09:46.008Z,14.70
2019-06-08T04:12:17.326Z,14.70
2019-06-08T04:14:50.089Z,14.60
2019-06-08T04:17:19.797Z,14.60
2019-06-08T04:20:06.321Z,14.50
2019-06-08T04:22:20.975Z,14.50
2019-06-08T04:24:50.766Z,14.40
2019-06-08T04:27:20.504Z,14.40
2019-06-08T04:29:50.290Z,14.20
2019-06-08T04:32:20.039Z,14.30
2019-06-08T04:34:50.069Z,14.30
2019-06-08T04:37:19.899Z,14.20
2019-06-08T04:39:50.911Z,14.20
2019-06-08T04:42:21.149Z,14.20
2019-06-08T04:44:50.835Z,14.10
2019-06-08T04:47:20.507Z,14.10
2019-06-08T04:49:50.370Z,14.10
2019-06-08T04:52:20.023Z,14.10
2019-06-08T04:54:49.958Z,14.10
2019-06-08T04:57:19.780Z,14.10
2019-06-08T04:59:50.459Z,14.00
2019-06-08T05:02:20.285Z,14.00
2019-06-08T05:04:50.088Z,14.00
2019-06-08T05:07:19.965Z,14.00
2019-06-08T05:09:49.639Z,13.90
2019-06-08T05:12:19.402Z,13.90
2019-06-08T05:14:49.345Z,13.90
2019-06-08T05:17:19.143Z,13.90
2019-06-08T05:19:50.559Z,13.90
2019-06-08T05:22:20.233Z,13.90
2019-06-08T05:24:50.181Z,13.90
2019-06-08T05:27:20.183Z,13.90
2019-06-08T05:29:50.186Z,13.90
2019-06-08T05:32:19.877Z,13.90
2019-06-08T05:34:49.782Z,13.80
2019-06-08T05:37:19.724Z,13.80
2019-06-08T05:39:49.956Z,13.80
2019-06-08T05:42:19.839Z,13.80
2019-06-08T05:44:50.272Z,13.70
2019-06-08T05:47:20.575Z,13.70
2019-06-08T05:49:50.255Z,13.70
2019-06-08T05:52:19.994Z,13.70
2019-06-08T05:54:51.141Z,13.70
2019-06-08T05:57:20.842Z,13.70
2019-06-08T05:59:50.538Z,13.70
2019-06-08T06:02:20.240Z,13.70
2019-06-08T06:04:52.257Z,13.70
2019-06-08T06:07:21.436Z,13.60
2019-06-08T06:09:51.281Z,13.60
2019-06-08T06:12:21.282Z,13.60
2019-06-08T06:14:51.295Z,13.60
2019-06-08T06:17:21.208Z,13.60
2019-06-08T06:19:52.839Z,13.50
2019-06-08T06:22:23.515Z,13.50
2019-06-08T06:24:53.314Z,13.50
2019-06-08T06:27:23.276Z,13.50
2019-06-08T06:29:54.351Z,13.50
2019-06-08T06:32:24.064Z,13.50
2019-06-08T06:34:53.796Z,13.50
2019-06-08T06:37:23.630Z,13.50
2019-06-08T06:39:53.303Z,13.50
2019-06-08T06:42:24.961Z,13.50
2019-06-08T06:44:54.739Z,13.50
2019-06-08T06:47:24.416Z,13.50
2019-06-08T06:49:54.196Z,13.50
2019-06-08T06:52:23.874Z,13.50
2019-06-08T06:54:53.637Z,13.50
2019-06-08T06:57:23.322Z,13.50
2019-06-08T06:59:54.186Z,13.50
2019-06-08T07:02:24.242Z,13.50
2019-06-08T07:04:54.390Z,13.50
2019-06-08T07:07:24.264Z,13.50
2019-06-08T07:09:54.885Z,13.50
2019-06-08T07:12:24.993Z,13.50
2019-06-08T07:14:55.514Z,13.50
2019-06-08T07:17:25.470Z,13.50
2019-06-08T07:19:55.159Z,13.50
2019-06-08T07:22:25.335Z,13.60
2019-06-08T07:24:55.134Z,13.60
2019-06-08T07:27:24.820Z,13.60
2019-06-08T07:29:54.785Z,13.60
2019-06-08T07:32:24.843Z,13.60
2019-06-08T07:34:55.327Z,13.60
2019-06-08T07:37:25.391Z,13.60
2019-06-08T07:39:56.181Z,13.60
2019-06-08T07:42:26.023Z,13.60
2019-06-08T07:44:55.942Z,13.60
2019-06-08T07:47:25.609Z,13.60
2019-06-08T07:49:55.671Z,13.60
2019-06-08T07:52:25.575Z,13.70
2019-06-08T07:54:56.552Z,13.70
2019-06-08T07:57:26.617Z,13.70
2019-06-08T07:59:56.464Z,13.80
2019-06-08T08:02:26.480Z,13.80
2019-06-08T08:04:56.727Z,13.70
2019-06-08T08:07:26.565Z,13.80
2019-06-08T08:09:56.971Z,13.80
2019-06-08T08:12:27.014Z,13.70
2019-06-08T08:14:58.085Z,13.80
2019-06-08T08:17:28.166Z,13.80
2019-06-08T08:19:59.309Z,13.80
2019-06-08T08:22:29.875Z,13.80
2019-06-08T08:25:03.268Z,13.90
2019-06-08T08:27:31.233Z,13.90
2019-06-08T08:30:02.116Z,13.90
2019-06-08T08:32:31.974Z,14.00
2019-06-08T08:35:03.055Z,14.00
2019-06-08T08:37:37.900Z,14.00
2019-06-08T08:40:09.550Z,14.00
2019-06-08T08:42:39.200Z,14.00
2019-06-08T08:45:09.685Z,13.90
2019-06-08T08:47:39.378Z,14.10
2019-06-08T08:50:10.144Z,14.10
2019-06-08T08:52:40.846Z,14.10
2019-06-08T08:55:11.203Z,14.20
2019-06-08T08:57:41.573Z,14.10
2019-06-08T09:00:13.769Z,14.10
2019-06-08T09:02:43.450Z,14.10
2019-06-08T09:05:13.456Z,14.10
2019-06-08T09:07:43.142Z,14.00
2019-06-08T09:10:18.136Z,14.10
2019-06-08T09:12:48.615Z,14.10
2019-06-08T09:15:23.020Z,14.10
2019-06-08T09:17:53.931Z,14.10
2019-06-08T09:20:25.214Z,14.10
2019-06-08T09:23:03.064Z,14.00
2019-06-08T09:25:28.028Z,14.00
2019-06-08T09:28:02.866Z,14.10
2019-06-08T09:30:31.219Z,14.10
2019-06-08T09:33:02.506Z,14.10
2019-06-08T09:35:32.519Z,14.10
2019-06-08T09:38:04.581Z,14.00
2019-06-08T09:40:33.718Z,14.00
2019-06-08T09:43:09.175Z,14.00
2019-06-08T09:45:34.862Z,14.00
2019-06-08T09:48:06.453Z,14.00
2019-06-08T09:50:38.469Z,14.10
2019-06-08T09:53:23.272Z,14.10
2019-06-08T09:55:41.370Z,14.20
2019-06-08T09:58:11.776Z,14.20
2019-06-08T10:00:41.861Z,14.20
2019-06-08T10:03:13.115Z,14.20
2019-06-08T10:05:42.788Z,14.20
2019-06-08T10:08:13.661Z,14.30
2019-06-08T10:10:43.357Z,14.30
2019-06-08T10:13:13.354Z,14.30
2019-06-08T10:15:43.131Z,14.40
2019-06-08T10:18:12.817Z,14.40
2019-06-08T10:20:42.495Z,14.40
2019-06-08T10:23:28.114Z,14.40
2019-06-08T10:25:43.710Z,14.50
2019-06-08T10:28:19.147Z,14.50
2019-06-08T10:30:48.390Z,14.50
2019-06-08T10:33:18.567Z,14.60
2019-06-08T10:35:48.865Z,14.70
2019-06-08T10:38:19.567Z,14.80
2019-06-08T10:41:09.174Z,14.80
2019-06-08T10:43:34.831Z,14.90
2019-06-08T10:46:09.988Z,14.90
2019-06-08T10:48:37.924Z,14.90
2019-06-08T10:51:12.489Z,14.90
2019-06-08T10:53:49.161Z,15.00
2019-06-08T10:56:12.330Z,15.00
2019-06-08T10:58:44.270Z,15.00
2019-06-08T11:01:14.153Z,14.90
2019-06-08T11:03:43.923Z,14.80
2019-06-08T11:06:13.775Z,14.70
2019-06-08T11:08:43.713Z,14.70
2019-06-08T11:11:13.590Z,14.60
2019-06-08T11:13:43.224Z,14.70
2019-06-08T11:16:13.630Z,14.70
2019-06-08T11:18:43.861Z,14.70
2019-06-08T11:21:13.592Z,14.70
2019-06-08T11:24:04.677Z,14.70
2019-06-08T11:26:23.952Z,14.80
2019-06-08T11:28:51.286Z,14.90
2019-06-08T11:31:21.449Z,14.90
2019-06-08T11:33:51.207Z,15.00
2019-06-08T11:36:20.897Z,15.10
2019-06-08T11:38:50.552Z,15.20
2019-06-08T11:41:22.786Z,15.20
2019-06-08T11:43:51.758Z,15.30
2019-06-08T11:46:22.271Z,15.30
2019-06-08T11:48:52.203Z,15.40
2019-06-08T11:51:21.989Z,15.40
2019-06-08T11:53:52.499Z,15.40
2019-06-08T11:56:24.618Z,15.40
2019-06-08T11:58:57.820Z,15.40
2019-06-08T12:01:27.728Z,15.30
2019-06-08T12:03:58.010Z,15.40
2019-06-08T12:06:27.784Z,15.30
2019-06-08T12:09:00.142Z,15.30
2019-06-08T12:11:28.871Z,15.30
2019-06-08T12:13:58.619Z,15.40
2019-06-08T12:16:28.456Z,15.40
2019-06-08T12:18:58.735Z,15.50
2019-06-08T12:21:28.427Z,15.60
2019-06-08T12:23:58.111Z,15.80
2019-06-08T12:26:28.411Z,15.90
2019-06-08T12:29:01.267Z,16.00
2019-06-08T12:31:30.691Z,16.00
2019-06-08T12:34:00.696Z,16.00
2019-06-08T12:36:30.742Z,15.90
2019-06-08T12:39:02.326Z,15.80
2019-06-08T12:41:33.203Z,15.80
2019-06-08T12:44:02.903Z,16.00
2019-06-08T12:46:33.741Z,16.10
2019-06-08T12:49:03.470Z,16.10
2019-06-08T12:51:33.135Z,16.10
2019-06-08T12:54:02.821Z,16.10
2019-06-08T12:56:32.510Z,16.20
2019-06-08T12:59:02.177Z,16.20
2019-06-08T13:01:33.094Z,16.30
2019-06-08T13:04:02.713Z,16.30
2019-06-08T13:06:32.416Z,16.20
2019-06-08T13:09:02.083Z,16.30
2019-06-08T13:11:31.877Z,16.20
2019-06-08T13:14:02.156Z,16.20
2019-06-08T13:16:33.292Z,16.20
2019-06-08T13:19:03.000Z,16.30
2019-06-08T13:21:35.407Z,16.30
2019-06-08T13:24:04.115Z,16.30
2019-06-08T13:26:34.116Z,16.40
2019-06-08T13:29:03.705Z,16.40
2019-06-08T13:31:33.375Z,16.40
2019-06-08T13:34:03.081Z,16.40
2019-06-08T13:36:32.750Z,16.30
2019-06-08T13:39:02.503Z,16.20
2019-06-08T13:41:32.340Z,16.20
2019-06-08T13:44:02.077Z,16.30
2019-06-08T13:46:31.743Z,16.30
2019-06-08T13:49:01.465Z,16.30
2019-06-08T13:51:31.705Z,16.30
2019-06-08T13:54:01.452Z,16.40
2019-06-08T13:56:31.134Z,16.50
2019-06-08T13:59:00.620Z,16.60
2019-06-08T14:01:30.974Z,16.80
2019-06-08T14:04:01.188Z,17.00
2019-06-08T14:06:31.068Z,17.50
2019-06-08T14:09:01.044Z,17.90
2019-06-08T14:11:30.767Z,18.20
2019-06-08T14:14:01.993Z,18.40
2019-06-08T14:16:31.711Z,18.50
2019-06-08T14:19:01.533Z,18.60
2019-06-08T14:21:40.089Z,18.70
2019-06-08T14:24:02.766Z,18.70
2019-06-08T14:26:34.098Z,18.60
2019-06-08T14:29:03.759Z,18.50
2019-06-08T14:31:34.686Z,18.50
2019-06-08T14:34:04.379Z,18.40
2019-06-08T14:36:34.107Z,18.30
2019-06-08T14:39:10.396Z,18.40
2019-06-08T14:41:38.170Z,18.50
2019-06-08T14:44:08.323Z,18.50
2019-06-08T14:46:41.440Z,18.60
2019-06-08T14:49:09.996Z,18.70
2019-06-08T14:51:49.212Z,18.90
2019-06-08T14:54:25.088Z,19.00
2019-06-08T14:56:54.947Z,19.10
2019-06-08T14:59:27.837Z,19.20
2019-06-08T15:01:58.262Z,19.30
2019-06-08T15:04:34.136Z,19.20
2019-06-08T15:06:59.450Z,19.10
2019-06-08T15:09:29.892Z,18.90
2019-06-08T15:11:59.581Z,18.80
2019-06-08T15:14:34.628Z,18.80
2019-06-08T15:17:08.579Z,18.70
2019-06-08T15:19:38.248Z,18.60
2019-06-08T15:22:11.281Z,18.50
2019-06-08T15:24:40.562Z,18.30
2019-06-08T15:27:12.374Z,18.20
2019-06-08T15:29:42.158Z,18.20
2019-06-08T15:32:11.986Z,18.10
2019-06-08T15:34:41.680Z,18.10
2019-06-08T15:37:12.834Z,18.00
2019-06-08T15:39:42.520Z,17.90
2019-06-08T15:42:12.242Z,17.80
2019-06-08T15:44:41.998Z,17.80
2019-06-08T15:47:12.942Z,17.80
2019-06-08T15:49:42.627Z,17.80
2019-06-08T15:52:34.167Z,17.80
2019-06-08T15:55:04.764Z,17.80
2019-06-08T15:57:38.067Z,17.80
2019-06-08T16:00:10.349Z,17.90
2019-06-08T16:02:41.406Z,17.90
2019-06-08T16:05:11.987Z,17.90
2019-06-08T16:07:42.867Z,18.00
2019-06-08T16:10:13.787Z,18.00
2019-06-08T16:12:45.083Z,18.10
2019-06-08T16:15:15.247Z,18.10
2019-06-08T16:17:45.527Z,18.20
2019-06-08T16:20:16.516Z,18.20
2019-06-08T16:22:47.072Z,18.30
2019-06-08T16:25:17.260Z,18.40
2019-06-08T16:27:47.014Z,18.60
2019-06-08T16:30:18.149Z,18.70
2019-06-08T16:32:49.004Z,18.90
2019-06-08T16:35:19.207Z,19.10
2019-06-08T16:37:50.463Z,19.40
2019-06-08T16:40:21.425Z,19.60
2019-06-08T16:42:52.279Z,19.70
2019-06-08T16:45:23.045Z,20.20
2019-06-08T16:47:53.792Z,20.90
2019-06-08T16:50:25.028Z,21.60
2019-06-08T16:52:55.153Z,22.00
2019-06-08T16:55:27.715Z,22.40
2019-06-08T16:57:58.242Z,23.30
2019-06-08T17:00:31.143Z,23.80
2019-06-08T17:03:01.633Z,24.70
2019-06-08T17:05:33.194Z,25.10
2019-06-08T17:08:03.959Z,25.00
2019-06-08T17:10:34.864Z,25.10
2019-06-08T17:13:05.832Z,25.40
2019-06-08T17:15:38.318Z,25.90
2019-06-08T17:18:10.516Z,26.00
2019-06-08T17:21:03.495Z,26.50
2019-06-08T17:23:34.459Z,27.00
2019-06-08T17:26:04.602Z,27.30
2019-06-08T17:28:35.379Z,27.40
2019-06-08T17:31:06.148Z,27.50
2019-06-08T17:33:37.276Z,27.80
2019-06-08T17:36:09.412Z,28.00
2019-06-08T17:38:41.485Z,28.30
2019-06-08T17:41:12.498Z,28.40
2019-06-08T17:43:42.912Z,28.60
2019-06-08T17:46:13.449Z,28.30
2019-06-08T17:48:44.509Z,27.50
2019-06-08T17:51:15.118Z,26.60
2019-06-08T17:53:45.915Z,25.80
2019-06-08T17:56:17.896Z,25.20
2019-06-08T17:58:50.989Z,24.40
2019-06-08T18:01:21.636Z,24.00
2019-06-08T18:03:53.123Z,24.20
2019-06-08T18:06:24.088Z,24.50
2019-06-08T18:08:55.147Z,24.60
2019-06-08T18:11:27.539Z,24.30
2019-06-08T18:13:58.875Z,24.60
2019-06-08T18:16:29.875Z,24.30
2019-06-08T18:19:00.472Z,24.00
2019-06-08T18:21:31.285Z,24.00
2019-06-08T18:24:02.725Z,23.70
2019-06-08T18:26:34.352Z,23.30
2019-06-08T18:29:07.792Z,23.00
2019-06-08T18:31:40.243Z,22.60
2019-06-08T18:34:11.080Z,22.20
2019-06-08T18:36:42.511Z,21.90
2019-06-08T18:39:14.040Z,21.70
2019-06-08T18:41:46.000Z,22.10
2019-06-08T18:44:17.819Z,22.00
2019-06-08T18:46:50.948Z,21.80
2019-06-08T18:49:21.788Z,21.50
2019-06-08T18:51:54.086Z,21.20
2019-06-08T18:54:27.619Z,20.90
2019-06-08T18:57:05.918Z,20.60
2019-06-08T18:59:41.851Z,20.40
2019-06-08T19:02:10.109Z,20.20
2019-06-08T19:04:41.791Z,20.00
2019-06-08T19:07:13.349Z,19.80
2019-06-08T19:09:47.554Z,19.70
2019-06-08T19:12:19.551Z,19.50
2019-06-08T19:14:52.378Z,19.40
2019-06-08T19:17:22.777Z,19.20
2019-06-08T19:19:54.817Z,19.10
2019-06-08T19:22:47.709Z,19.10
2019-06-08T19:25:17.673Z,19.00
2019-06-08T19:27:53.174Z,18.90
2019-06-08T19:30:24.330Z,18.90
2019-06-08T19:32:53.242Z,18.80
2019-06-08T19:35:23.668Z,18.70
2019-06-08T19:37:54.805Z,18.60
2019-06-08T19:40:27.165Z,18.50
2019-06-08T19:43:01.302Z,18.40
2019-06-08T19:45:30.788Z,18.30
2019-06-08T19:48:01.941Z,18.20
2019-06-08T19:50:33.058Z,18.10
2019-06-08T19:53:07.230Z,18.10
2019-06-08T19:55:37.736Z,18.00
2019-06-08T19:58:09.385Z,17.90
2019-06-08T20:00:41.088Z,17.90
2019-06-08T20:03:13.008Z,17.80
2019-06-08T20:05:45.198Z,17.70
2019-06-08T20:08:17.411Z,17.60
2019-06-08T20:10:49.602Z,17.50
2019-06-08T20:13:21.015Z,17.40
2019-06-08T20:15:57.306Z,17.30
2019-06-08T20:18:24.638Z,17.20
2019-06-08T20:20:58.429Z,17.10
2019-06-08T20:23:28.877Z,17.10
2019-06-08T20:26:00.816Z,17.00
2019-06-08T20:28:31.480Z,17.00
2019-06-08T20:31:02.333Z,17.00
2019-06-08T20:33:33.576Z,17.00
2019-06-08T20:36:04.606Z,17.00
2019-06-08T20:38:41.445Z,17.00
2019-06-08T20:41:07.978Z,16.90
2019-06-08T20:43:41.239Z,16.90
2019-06-08T20:46:13.163Z,16.90
2019-06-08T20:48:44.247Z,16.80
2019-06-08T20:51:17.106Z,16.80
2019-06-08T20:53:50.935Z,16.70
2019-06-08T20:56:24.451Z,16.70
2019-06-08T20:59:29.599Z,16.70
2019-06-08T21:01:48.928Z,16.60
2019-06-08T21:04:20.883Z,16.60
2019-06-08T21:06:52.825Z,16.50
2019-06-08T21:09:23.812Z,16.50
2019-06-08T21:11:56.344Z,16.50
2019-06-08T21:14:27.413Z,16.40
2019-06-08T21:16:59.007Z,16.30
2019-06-08T21:19:30.691Z,16.30
2019-06-08T21:22:02.273Z,16.20
2019-06-08T21:24:37.005Z,16.20
2019-06-08T21:27:08.331Z,16.10
2019-06-08T21:29:49.407Z,16.00
2019-06-08T21:32:17.575Z,15.90
2019-06-08T21:34:50.838Z,15.80
2019-06-08T21:37:20.830Z,15.80
2019-06-08T21:39:55.352Z,15.60
2019-06-08T21:42:24.346Z,15.60
2019-06-08T21:44:59.418Z,15.50
2019-06-08T21:47:32.191Z,15.40
2019-06-08T21:50:03.034Z,15.30
2019-06-08T21:52:35.101Z,15.20
2019-06-08T21:55:07.387Z,15.10
2019-06-08T21:57:38.148Z,15.10
2019-06-08T22:00:34.707Z,15.00
2019-06-08T22:02:42.979Z,14.90
2019-06-08T22:05:13.961Z,14.80
2019-06-08T22:07:44.393Z,14.80
2019-06-08T22:10:17.817Z,14.70
2019-06-08T22:12:51.805Z,14.70
2019-06-08T22:15:24.507Z,14.60
2019-06-08T22:17:55.063Z,14.50
2019-06-08T22:20:27.395Z,14.50
2019-06-08T22:22:59.326Z,14.50
2019-06-08T22:25:29.322Z,14.40
2019-06-08T22:28:00.952Z,14.40
2019-06-08T22:30:39.155Z,14.30
2019-06-08T22:33:03.961Z,14.30
2019-06-08T22:35:34.423Z,14.20
2019-06-08T22:38:05.035Z,14.20
2019-06-08T22:40:37.087Z,14.10
2019-06-08T22:43:08.228Z,14.00
2019-06-08T22:45:39.727Z,14.00
2019-06-08T22:48:10.358Z,13.90
2019-06-08T22:50:42.617Z,13.90
2019-06-08T22:53:14.802Z,13.80
2019-06-08T22:55:47.716Z,13.80
2019-06-08T22:58:19.416Z,13.70
2019-06-08T23:00:53.011Z,13.70
2019-06-08T23:03:22.904Z,13.60
2019-06-08T23:05:54.869Z,13.60
2019-06-08T23:08:27.092Z,13.60
2019-06-08T23:11:03.733Z,13.50
2019-06-08T23:13:37.685Z,13.50
2019-06-08T23:16:09.480Z,13.40
2019-06-08T23:18:41.749Z,13.40
2019-06-08T23:21:13.199Z,13.40
2019-06-08T23:23:43.940Z,13.30
2019-06-08T23:26:15.021Z,13.30
2019-06-08T23:28:47.139Z,13.30
2019-06-08T23:31:24.968Z,13.20
2019-06-08T23:33:52.988Z,13.20
2019-06-08T23:36:46.736Z,13.20
2019-06-08T23:38:57.251Z,13.10
2019-06-08T23:41:28.081Z,13.10
2019-06-08T23:43:59.532Z,13.10
2019-06-08T23:46:30.023Z,13.10
2019-06-08T23:49:03.915Z,13.00
2019-06-08T23:51:38.105Z,13.00
2019-06-08T23:54:12.042Z,13.00
2019-06-08T23:56:50.200Z,12.90
2019-06-08T23:59:21.499Z,12.90
